Itatiaia, Brazil
Current Conditions -  °F | °C
As of 7:00 PM on Friday 24 Oct 2014 (Local Time) from SBIP Reporting Station
Clear Clear  
Wind Chill: 79°   Ceiling: Unl
Heat Index: 80°   Visibility: 6mi
Dew Point: 61°   Wind: 5mph
Humidity: 54%   Direction: 20°NNE
Pressure: 29.88"   Gusts: NA
Location:  19.33°S, 41.43°W
Report Text: SBIP 242100Z 02004KT CAVOK 26/16 Q1012
Loading
Personal Weather Stations






























Interactive Weather Map
Tropical Storm Tracking
New forecast layout! Learn more

10-Day Weather Forecast

Advertisements
Track Severe Weather on mobile